Terminal Aerodrome Forecast
Issued by NWS Blacksburg, VA

Current Version | Previous Version | Text Only | Print | Product List | Glossary Off
Versions: 1 2 3 4 5 6 7 8 9 10 11 12 13 14 15 16 17 18 19 20 21 22 23 24 25 26 27 28 29 30 31 32 33 34 35 36 37 38 39 40 41 42 43 44 45

000
FTUS41 KRNK 211708 AAA
TAFBLF
TAF AMD
KBLF 211708Z 2117/2212 29012G24KT P6SM SCT014 OVC035
      TEMPO 2117/2121 P6SM -SHRA OVC014
     FM220000 30011G21KT P6SM -SHRA BKN007 OVC015=

USA.gov is the U.S. government's official web portal to all federal, state and local government web resources and services.